Iago, Texas
Current Conditions -  °F | °C
As of 10:15 PM on Sunday 25 Jan 2015 (Local Time) from KARM Reporting Station
Clear Clear  
Wind Chill: 53°   Ceiling: Unl
Heat Index: 53°   Visibility: 10mi
Dew Point: 38°   Wind: 9mph
Humidity: 56%   Direction: 320°NW
Pressure: 30.17"   Gusts: NA
Location:  29.2399°N, 95.9345°W
Report Text: KARM 260415Z AUTO 32008KT 10SM CLR 12/03 A3017 RMK AO2 T01190033
Loading
Personal Weather Stations






























Interactive Weather Map New forecast layout! Learn more

10-Day Weather Forecast

Advertisements
Track Severe Weather on mobile